Rabigh, Saudi Arabia
Current Conditions -  °F | °C
As of 12:00 AM on Friday 21 Nov 2014 (Local Time) from OEJN Reporting Station
Clear Clear  
Wind Chill: 82°   Ceiling: Unl
Heat Index: 87°   Visibility: 6mi
Dew Point: 72°   Wind: 0mph
Humidity: 70%   Direction: NA
Pressure: 29.88"   Gusts: NA
Location:  22.8°N, 39.04°E
Report Text: OEJN 202100Z 00000KT CAVOK 28/22 Q1012 NOSIG
Loading
Personal Weather Stations






























Interactive Weather Map New forecast layout! Learn more

10-Day Weather Forecast

Advertisements
Track Severe Weather on mobile